Date,TemperatureHighF,TemperatureAvgF,TemperatureLowF,DewpointHighF,DewpointAvgF,DewpointLowF,HumidityHigh,HumidityAvg,HumidityLow,PressureMaxIn,PressureMinIn,WindSpeedMaxMPH,WindSpeedAvgMPH,GustSpeedMaxMPH,PrecipitationSumIn
2013-2-1,45,43,40,-100,-100,-100,0,0,100,29.85,29.36,0,-999,0,0.00
2013-2-2,44,42,38,-100,-100,-100,0,0,100,30.28,29.80,0,-999,0,0.00
2013-2-3,52,48,43,-100,-100,-100,0,0,100,30.18,29.82,0,-999,0,0.00
2013-2-4,49,45,38,-100,-100,-100,0,0,100,29.88,29.56,0,-999,0,0.00
2013-2-5,47,43,38,-100,-100,-100,0,0,100,29.57,29.41,0,-999,0,0.00
2013-2-6,45,42,38,-100,-100,-100,0,0,100,30.27,29.50,0,-999,0,0.00
2013-2-7,43,40,38,-100,-100,-100,0,0,100,30.21,29.97,0,-999,0,0.00
2013-2-8,45,42,38,-100,-100,-100,0,0,100,30.22,30.11,0,-999,0,0.00
2013-2-9,47,46,40,-100,-100,-100,0,0,100,30.06,29.78,0,-999,0,0.00
2013-2-10,40,39,38,-100,-100,-100,0,0,100,29.40,29.24,0,-999,0,0.00
2013-2-11,41,41,41,-100,-100,-100,0,0,100,29.59,29.59,0,-999,0,0.00
2013-2-12,41,39,36,-100,-100,-100,0,0,100,30.03,29.98,0,-999,0,0.00
2013-2-13,35,34,32,-100,-100,-100,0,0,100,30.02,29.94,0,-999,0,0.00
2013-2-18,46,45,43,-100,-100,-100,0,0,100,30.09,30.01,0,-999,0,0.00
2013-2-19,46,41,32,-100,-100,-100,0,0,100,30.12,30.05,0,-999,0,0.00
2013-2-20,46,41,35,-100,-100,-100,0,0,100,30.22,30.05,0,-999,0,0.00
2013-2-21,40,37,33,-100,-100,-100,0,0,100,30.28,30.14,0,-999,0,0.00
2013-2-22,38,36,34,-100,-100,-100,0,0,100,30.25,30.14,0,-999,0,0.00
2013-2-23,41,37,33,-100,-100,-100,0,0,100,30.31,30.19,0,-999,0,0.00
2013-2-24,39,38,36,-100,-100,-100,0,0,100,30.39,30.29,0,-999,0,0.00
2013-2-25,45,42,37,-100,-100,-100,0,0,100,30.58,30.52,0,-999,0,0.00
2013-2-26,44,41,40,-100,-100,-100,0,0,100,30.59,30.52,0,-999,0,0.00
2013-2-27,43,41,39,-100,-100,-100,0,0,100,30.65,30.55,0,-999,0,0.00
2013-2-28,45,41,36,-100,-100,-100,0,0,100,30.55,30.47,0,-999,0,0.00